sensor_id;sensor_type;location;lat;lon;timestamp;P1;durP1;ratioP1;P2;durP2;ratioP2
51525;SDS011;37611;51.794;21.590;2022-10-16T00:03:58;26.50;;;21.00;;
51525;SDS011;37611;51.794;21.590;2022-10-16T00:08:01;24.70;;;19.40;;
51525;SDS011;37611;51.794;21.590;2022-10-16T00:12:04;22.20;;;18.30;;
51525;SDS011;37611;51.794;21.590;2022-10-16T00:16:08;20.40;;;17.40;;
51525;SDS011;37611;51.794;21.590;2022-10-16T00:20:11;24.90;;;16.70;;
51525;SDS011;37611;51.794;21.590;2022-10-16T00:24:12;21.70;;;17.30;;
51525;SDS011;37611;51.794;21.590;2022-10-16T00:28:14;20.30;;;17.40;;
51525;SDS011;37611;51.794;21.590;2022-10-16T00:32:16;20.80;;;17.20;;
51525;SDS011;37611;51.794;21.590;2022-10-16T00:36:19;20.10;;;16.80;;
51525;SDS011;37611;51.794;21.590;2022-10-16T00:40:23;21.50;;;16.90;;
51525;SDS011;37611;51.794;21.590;2022-10-16T00:44:41;21.10;;;17.10;;
51525;SDS011;37611;51.794;21.590;2022-10-16T00:52:56;20.40;;;17.90;;
51525;SDS011;37611;51.794;21.590;2022-10-16T00:57:01;20.00;;;16.20;;
51525;SDS011;37611;51.794;21.590;2022-10-16T01:01:05;20.50;;;18.40;;
51525;SDS011;37611;51.794;21.590;2022-10-16T01:05:07;21.10;;;17.00;;
51525;SDS011;37611;51.794;21.590;2022-10-16T01:13:46;19.40;;;16.60;;
51525;SDS011;37611;51.794;21.590;2022-10-16T01:18:08;18.00;;;16.00;;
51525;SDS011;37611;51.794;21.590;2022-10-16T01:22:13;18.50;;;16.50;;
51525;SDS011;37611;51.794;21.590;2022-10-16T01:30:36;21.70;;;17.50;;
51525;SDS011;37611;51.794;21.590;2022-10-16T01:34:47;21.20;;;18.60;;
51525;SDS011;37611;51.794;21.590;2022-10-16T01:38:53;19.80;;;17.50;;
51525;SDS011;37611;51.794;21.590;2022-10-16T01:43:03;19.60;;;17.30;;
51525;SDS011;37611;51.794;21.590;2022-10-16T01:47:09;22.80;;;17.10;;
51525;SDS011;37611;51.794;21.590;2022-10-16T01:51:15;18.40;;;16.20;;
51525;SDS011;37611;51.794;21.590;2022-10-16T01:55:21;19.30;;;16.80;;
51525;SDS011;37611;51.794;21.590;2022-10-16T01:59:27;24.30;;;16.60;;
51525;SDS011;37611;51.794;21.590;2022-10-16T02:03:33;18.50;;;16.00;;
51525;SDS011;37611;51.794;21.590;2022-10-16T02:07:37;21.40;;;17.80;;
51525;SDS011;37611;51.794;21.590;2022-10-16T02:11:38;20.10;;;16.40;;
51525;SDS011;37611;51.794;21.590;2022-10-16T02:15:40;20.20;;;16.10;;
51525;SDS011;37611;51.794;21.590;2022-10-16T02:19:42;20.20;;;16.20;;
51525;SDS011;37611;51.794;21.590;2022-10-16T02:23:51;17.50;;;15.40;;
51525;SDS011;37611;51.794;21.590;2022-10-16T02:32:27;20.30;;;16.00;;
51525;SDS011;37611;51.794;21.590;2022-10-16T02:36:32;17.70;;;15.80;;
51525;SDS011;37611;51.794;21.590;2022-10-16T02:40:36;18.10;;;15.10;;
51525;SDS011;37611;51.794;21.590;2022-10-16T02:44:38;20.20;;;16.90;;
51525;SDS011;37611;51.794;21.590;2022-10-16T02:48:40;21.90;;;16.70;;
51525;SDS011;37611;51.794;21.590;2022-10-16T02:52:42;24.40;;;17.00;;
51525;SDS011;37611;51.794;21.590;2022-10-16T02:56:44;19.20;;;16.90;;
51525;SDS011;37611;51.794;21.590;2022-10-16T03:00:45;23.10;;;16.70;;
51525;SDS011;37611;51.794;21.590;2022-10-16T03:04:47;17.90;;;15.50;;
51525;SDS011;37611;51.794;21.590;2022-10-16T03:08:49;18.80;;;16.10;;
51525;SDS011;37611;51.794;21.590;2022-10-16T03:12:50;18.60;;;14.80;;
51525;SDS011;37611;51.794;21.590;2022-10-16T03:16:52;18.70;;;15.40;;
51525;SDS011;37611;51.794;21.590;2022-10-16T03:20:54;18.00;;;15.10;;
51525;SDS011;37611;51.794;21.590;2022-10-16T03:24:56;20.00;;;16.70;;
51525;SDS011;37611;51.794;21.590;2022-10-16T03:28:57;19.80;;;17.80;;
51525;SDS011;37611;51.794;21.590;2022-10-16T03:32:59;20.10;;;16.60;;
51525;SDS011;37611;51.794;21.590;2022-10-16T03:37:01;20.40;;;15.50;;
51525;SDS011;37611;51.794;21.590;2022-10-16T03:41:02;21.40;;;15.80;;
51525;SDS011;37611;51.794;21.590;2022-10-16T03:45:05;22.30;;;15.20;;
51525;SDS011;37611;51.794;21.590;2022-10-16T03:49:07;18.20;;;14.80;;
51525;SDS011;37611;51.794;21.590;2022-10-16T03:53:09;18.10;;;15.80;;
51525;SDS011;37611;51.794;21.590;2022-10-16T03:57:11;18.20;;;15.70;;
51525;SDS011;37611;51.794;21.590;2022-10-16T04:01:13;17.60;;;14.60;;
51525;SDS011;37611;51.794;21.590;2022-10-16T04:05:14;16.60;;;14.40;;
51525;SDS011;37611;51.794;21.590;2022-10-16T04:09:16;16.80;;;15.10;;
51525;SDS011;37611;51.794;21.590;2022-10-16T04:13:18;19.90;;;14.70;;
51525;SDS011;37611;51.794;21.590;2022-10-16T04:17:20;17.10;;;14.70;;
51525;SDS011;37611;51.794;21.590;2022-10-16T04:21:21;20.90;;;15.70;;
51525;SDS011;37611;51.794;21.590;2022-10-16T04:25:23;18.70;;;15.60;;
51525;SDS011;37611;51.794;21.590;2022-10-16T04:29:25;21.10;;;17.30;;
51525;SDS011;37611;51.794;21.590;2022-10-16T04:33:27;23.90;;;18.50;;
51525;SDS011;37611;51.794;21.590;2022-10-16T04:37:28;24.20;;;17.60;;
51525;SDS011;37611;51.794;21.590;2022-10-16T04:41:30;20.20;;;17.00;;
51525;SDS011;37611;51.794;21.590;2022-10-16T04:45:32;20.00;;;16.90;;
51525;SDS011;37611;51.794;21.590;2022-10-16T04:49:33;18.60;;;15.60;;
51525;SDS011;37611;51.794;21.590;2022-10-16T04:53:35;20.20;;;16.40;;
51525;SDS011;37611;51.794;21.590;2022-10-16T04:57:37;18.10;;;16.10;;
51525;SDS011;37611;51.794;21.590;2022-10-16T05:01:39;20.70;;;16.80;;
51525;SDS011;37611;51.794;21.590;2022-10-16T05:05:42;17.60;;;15.80;;
51525;SDS011;37611;51.794;21.590;2022-10-16T05:09:47;18.60;;;15.30;;
51525;SDS011;37611;51.794;21.590;2022-10-16T05:13:49;18.10;;;14.60;;
51525;SDS011;37611;51.794;21.590;2022-10-16T05:17:54;18.80;;;16.80;;
51525;SDS011;37611;51.794;21.590;2022-10-16T05:21:56;17.90;;;15.50;;
51525;SDS011;37611;51.794;21.590;2022-10-16T05:25:58;17.00;;;15.20;;
51525;SDS011;37611;51.794;21.590;2022-10-16T05:30:00;21.10;;;15.40;;
51525;SDS011;37611;51.794;21.590;2022-10-16T05:34:02;17.20;;;15.00;;
51525;SDS011;37611;51.794;21.590;2022-10-16T05:38:04;21.50;;;15.90;;
51525;SDS011;37611;51.794;21.590;2022-10-16T05:42:06;19.90;;;15.70;;
51525;SDS011;37611;51.794;21.590;2022-10-16T05:46:07;18.60;;;15.00;;
51525;SDS011;37611;51.794;21.590;2022-10-16T05:50:09;20.10;;;15.30;;
51525;SDS011;37611;51.794;21.590;2022-10-16T05:54:11;19.60;;;15.40;;
51525;SDS011;37611;51.794;21.590;2022-10-16T05:58:13;19.10;;;16.70;;
51525;SDS011;37611;51.794;21.590;2022-10-16T06:02:14;20.10;;;16.00;;
51525;SDS011;37611;51.794;21.590;2022-10-16T06:06:17;19.50;;;15.70;;
51525;SDS011;37611;51.794;21.590;2022-10-16T06:10:21;20.20;;;14.80;;
51525;SDS011;37611;51.794;21.590;2022-10-16T06:14:23;18.90;;;15.20;;
51525;SDS011;37611;51.794;21.590;2022-10-16T06:18:26;20.80;;;15.70;;
51525;SDS011;37611;51.794;21.590;2022-10-16T06:22:29;22.30;;;16.10;;
51525;SDS011;37611;51.794;21.590;2022-10-16T06:26:30;20.70;;;17.90;;
51525;SDS011;37611;51.794;21.590;2022-10-16T06:30:32;26.60;;;22.30;;
51525;SDS011;37611;51.794;21.590;2022-10-16T06:34:34;26.10;;;20.10;;
51525;SDS011;37611;51.794;21.590;2022-10-16T06:38:36;17.90;;;16.00;;
51525;SDS011;37611;51.794;21.590;2022-10-16T06:42:39;19.90;;;15.50;;
51525;SDS011;37611;51.794;21.590;2022-10-16T06:46:40;20.30;;;17.20;;
51525;SDS011;37611;51.794;21.590;2022-10-16T06:50:42;20.30;;;17.10;;
51525;SDS011;37611;51.794;21.590;2022-10-16T06:54:44;20.60;;;17.30;;
51525;SDS011;37611;51.794;21.590;2022-10-16T06:58:46;19.20;;;17.10;;
51525;SDS011;37611;51.794;21.590;2022-10-16T07:02:49;18.60;;;16.70;;
51525;SDS011;37611;51.794;21.590;2022-10-16T07:06:51;19.90;;;15.50;;
51525;SDS011;37611;51.794;21.590;2022-10-16T07:10:59;15.80;;;14.10;;
51525;SDS011;37611;51.794;21.590;2022-10-16T07:15:02;18.80;;;15.00;;
51525;SDS011;37611;51.794;21.590;2022-10-16T07:19:04;19.00;;;14.60;;
51525;SDS011;37611;51.794;21.590;2022-10-16T07:23:06;18.80;;;15.40;;
51525;SDS011;37611;51.794;21.590;2022-10-16T07:27:07;18.10;;;14.70;;
51525;SDS011;37611;51.794;21.590;2022-10-16T07:31:11;15.90;;;13.30;;
51525;SDS011;37611;51.794;21.590;2022-10-16T07:35:14;16.30;;;14.20;;
51525;SDS011;37611;51.794;21.590;2022-10-16T07:39:16;16.40;;;13.30;;
51525;SDS011;37611;51.794;21.590;2022-10-16T07:43:18;17.70;;;14.10;;
51525;SDS011;37611;51.794;21.590;2022-10-16T07:47:20;16.90;;;15.10;;
51525;SDS011;37611;51.794;21.590;2022-10-16T07:51:22;16.80;;;13.40;;
51525;SDS011;37611;51.794;21.590;2022-10-16T07:55:26;18.30;;;15.50;;
51525;SDS011;37611;51.794;21.590;2022-10-16T07:59:27;19.30;;;14.60;;
51525;SDS011;37611;51.794;21.590;2022-10-16T08:03:29;24.80;;;20.80;;
51525;SDS011;37611;51.794;21.590;2022-10-16T08:07:31;29.10;;;25.80;;
51525;SDS011;37611;51.794;21.590;2022-10-16T08:11:32;16.20;;;13.20;;
51525;SDS011;37611;51.794;21.590;2022-10-16T08:15:35;17.70;;;13.50;;
51525;SDS011;37611;51.794;21.590;2022-10-16T08:19:36;16.00;;;13.70;;
51525;SDS011;37611;51.794;21.590;2022-10-16T08:23:39;14.30;;;12.90;;
51525;SDS011;37611;51.794;21.590;2022-10-16T08:27:40;17.10;;;12.60;;
51525;SDS011;37611;51.794;21.590;2022-10-16T08:31:42;15.80;;;13.00;;
51525;SDS011;37611;51.794;21.590;2022-10-16T08:35:51;14.40;;;12.90;;
51525;SDS011;37611;51.794;21.590;2022-10-16T08:39:54;13.70;;;12.30;;
51525;SDS011;37611;51.794;21.590;2022-10-16T08:44:03;13.00;;;11.60;;
51525;SDS011;37611;51.794;21.590;2022-10-16T08:52:18;14.20;;;11.60;;
51525;SDS011;37611;51.794;21.590;2022-10-16T08:56:20;16.90;;;11.50;;
51525;SDS011;37611;51.794;21.590;2022-10-16T09:00:22;12.40;;;11.00;;
51525;SDS011;37611;51.794;21.590;2022-10-16T09:17:21;12.00;;;10.60;;
51525;SDS011;37611;51.794;21.590;2022-10-16T09:21:43;12.00;;;9.60;;
51525;SDS011;37611;51.794;21.590;2022-10-16T09:25:47;12.30;;;10.40;;
51525;SDS011;37611;51.794;21.590;2022-10-16T09:29:50;10.60;;;9.30;;
51525;SDS011;37611;51.794;21.590;2022-10-16T09:33:53;11.40;;;8.70;;
51525;SDS011;37611;51.794;21.590;2022-10-16T09:37:59;13.40;;;9.70;;
51525;SDS011;37611;51.794;21.590;2022-10-16T09:42:01;10.60;;;9.30;;
51525;SDS011;37611;51.794;21.590;2022-10-16T09:46:07;12.40;;;9.90;;
51525;SDS011;37611;51.794;21.590;2022-10-16T09:50:27;11.20;;;9.60;;
51525;SDS011;37611;51.794;21.590;2022-10-16T09:54:30;9.90;;;8.90;;
51525;SDS011;37611;51.794;21.590;2022-10-16T09:58:32;10.70;;;9.10;;
51525;SDS011;37611;51.794;21.590;2022-10-16T10:02:35;14.10;;;9.00;;
51525;SDS011;37611;51.794;21.590;2022-10-16T10:06:43;10.80;;;9.70;;
51525;SDS011;37611;51.794;21.590;2022-10-16T10:10:47;12.60;;;9.80;;
51525;SDS011;37611;51.794;21.590;2022-10-16T10:14:53;10.70;;;9.60;;
51525;SDS011;37611;51.794;21.590;2022-10-16T10:18:58;10.00;;;9.00;;
51525;SDS011;37611;51.794;21.590;2022-10-16T10:23:13;11.40;;;10.20;;
51525;SDS011;37611;51.794;21.590;2022-10-16T10:27:31;12.20;;;10.10;;
51525;SDS011;37611;51.794;21.590;2022-10-16T10:40:35;11.20;;;10.00;;
51525;SDS011;37611;51.794;21.590;2022-10-16T10:49:48;10.40;;;9.30;;
51525;SDS011;37611;51.794;21.590;2022-10-16T10:58:48;13.80;;;10.50;;
51525;SDS011;37611;51.794;21.590;2022-10-16T11:03:41;13.10;;;11.00;;
51525;SDS011;37611;51.794;21.590;2022-10-16T11:07:36;13.60;;;9.80;;
51525;SDS011;37611;51.794;21.590;2022-10-16T11:17:10;11.20;;;10.00;;
51525;SDS011;37611;51.794;21.590;2022-10-16T11:25:20;11.90;;;9.30;;
51525;SDS011;37611;51.794;21.590;2022-10-16T11:29:29;9.90;;;8.90;;
51525;SDS011;37611;51.794;21.590;2022-10-16T11:33:38;10.40;;;9.40;;
51525;SDS011;37611;51.794;21.590;2022-10-16T11:37:42;11.70;;;10.40;;
51525;SDS011;37611;51.794;21.590;2022-10-16T11:41:52;11.30;;;9.30;;
51525;SDS011;37611;51.794;21.590;2022-10-16T11:46:24;11.80;;;9.70;;
51525;SDS011;37611;51.794;21.590;2022-10-16T11:54:58;10.50;;;9.40;;
51525;SDS011;37611;51.794;21.590;2022-10-16T11:59:13;11.80;;;8.60;;
51525;SDS011;37611;51.794;21.590;2022-10-16T12:03:41;10.30;;;9.30;;
51525;SDS011;37611;51.794;21.590;2022-10-16T12:07:53;9.30;;;8.20;;
51525;SDS011;37611;51.794;21.590;2022-10-16T12:20:59;8.60;;;7.80;;
51525;SDS011;37611;51.794;21.590;2022-10-16T12:25:19;9.30;;;8.40;;
51525;SDS011;37611;51.794;21.590;2022-10-16T12:33:40;12.90;;;8.50;;
51525;SDS011;37611;51.794;21.590;2022-10-16T12:38:12;11.50;;;9.00;;
51525;SDS011;37611;51.794;21.590;2022-10-16T12:50:35;9.70;;;8.70;;
51525;SDS011;37611;51.794;21.590;2022-10-16T12:54:39;11.30;;;9.20;;
51525;SDS011;37611;51.794;21.590;2022-10-16T12:59:04;10.10;;;9.10;;
51525;SDS011;37611;51.794;21.590;2022-10-16T13:03:18;10.60;;;9.50;;
51525;SDS011;37611;51.794;21.590;2022-10-16T13:16:58;11.90;;;9.90;;
51525;SDS011;37611;51.794;21.590;2022-10-16T13:29:30;9.50;;;8.50;;
51525;SDS011;37611;51.794;21.590;2022-10-16T13:33:37;10.80;;;9.60;;
51525;SDS011;37611;51.794;21.590;2022-10-16T13:41:43;12.30;;;8.70;;
51525;SDS011;37611;51.794;21.590;2022-10-16T13:50:24;16.80;;;12.80;;
51525;SDS011;37611;51.794;21.590;2022-10-16T13:54:26;20.70;;;13.80;;
51525;SDS011;37611;51.794;21.590;2022-10-16T13:58:32;15.50;;;12.40;;
51525;SDS011;37611;51.794;21.590;2022-10-16T14:02:34;22.30;;;17.20;;
51525;SDS011;37611;51.794;21.590;2022-10-16T14:06:46;14.70;;;12.30;;
51525;SDS011;37611;51.794;21.590;2022-10-16T14:10:51;17.80;;;12.80;;
51525;SDS011;37611;51.794;21.590;2022-10-16T14:14:56;14.10;;;11.10;;
51525;SDS011;37611;51.794;21.590;2022-10-16T14:23:21;13.40;;;12.10;;
51525;SDS011;37611;51.794;21.590;2022-10-16T14:27:43;17.40;;;14.00;;
51525;SDS011;37611;51.794;21.590;2022-10-16T14:32:00;15.60;;;12.60;;
51525;SDS011;37611;51.794;21.590;2022-10-16T14:40:14;16.10;;;14.40;;
51525;SDS011;37611;51.794;21.590;2022-10-16T14:44:17;18.30;;;14.00;;
51525;SDS011;37611;51.794;21.590;2022-10-16T14:48:20;20.50;;;15.70;;
51525;SDS011;37611;51.794;21.590;2022-10-16T14:52:22;19.70;;;14.80;;
51525;SDS011;37611;51.794;21.590;2022-10-16T14:56:24;22.10;;;17.20;;
51525;SDS011;37611;51.794;21.590;2022-10-16T15:00:30;23.80;;;17.30;;
51525;SDS011;37611;51.794;21.590;2022-10-16T15:04:32;19.10;;;16.50;;
51525;SDS011;37611;51.794;21.590;2022-10-16T15:08:34;21.60;;;16.50;;
51525;SDS011;37611;51.794;21.590;2022-10-16T15:12:36;18.70;;;16.60;;
51525;SDS011;37611;51.794;21.590;2022-10-16T15:16:38;18.50;;;15.60;;
51525;SDS011;37611;51.794;21.590;2022-10-16T15:20:40;21.50;;;16.90;;
51525;SDS011;37611;51.794;21.590;2022-10-16T15:24:42;21.70;;;16.10;;
51525;SDS011;37611;51.794;21.590;2022-10-16T15:28:44;20.00;;;17.70;;
51525;SDS011;37611;51.794;21.590;2022-10-16T15:32:46;61.90;;;47.70;;
51525;SDS011;37611;51.794;21.590;2022-10-16T15:36:47;40.70;;;34.90;;
51525;SDS011;37611;51.794;21.590;2022-10-16T15:40:49;44.30;;;39.00;;
51525;SDS011;37611;51.794;21.590;2022-10-16T15:44:52;26.90;;;24.10;;
51525;SDS011;37611;51.794;21.590;2022-10-16T15:48:55;21.90;;;18.20;;
51525;SDS011;37611;51.794;21.590;2022-10-16T15:52:58;20.90;;;18.10;;
51525;SDS011;37611;51.794;21.590;2022-10-16T15:57:00;22.80;;;20.30;;
51525;SDS011;37611;51.794;21.590;2022-10-16T16:01:02;25.90;;;23.20;;
51525;SDS011;37611;51.794;21.590;2022-10-16T16:05:05;32.00;;;22.10;;
51525;SDS011;37611;51.794;21.590;2022-10-16T16:09:09;45.40;;;35.00;;
51525;SDS011;37611;51.794;21.590;2022-10-16T16:13:11;47.50;;;40.20;;
51525;SDS011;37611;51.794;21.590;2022-10-16T16:17:13;27.50;;;24.60;;
51525;SDS011;37611;51.794;21.590;2022-10-16T16:21:14;28.80;;;23.90;;
51525;SDS011;37611;51.794;21.590;2022-10-16T16:25:16;33.70;;;29.60;;
51525;SDS011;37611;51.794;21.590;2022-10-16T16:29:18;39.60;;;31.40;;
51525;SDS011;37611;51.794;21.590;2022-10-16T16:33:20;44.40;;;34.60;;
51525;SDS011;37611;51.794;21.590;2022-10-16T16:37:21;36.90;;;30.30;;
51525;SDS011;37611;51.794;21.590;2022-10-16T16:41:24;34.40;;;29.60;;
51525;SDS011;37611;51.794;21.590;2022-10-16T16:45:27;30.20;;;27.00;;
51525;SDS011;37611;51.794;21.590;2022-10-16T16:49:29;29.20;;;26.10;;
51525;SDS011;37611;51.794;21.590;2022-10-16T16:53:33;26.80;;;23.90;;
51525;SDS011;37611;51.794;21.590;2022-10-16T16:57:35;30.00;;;26.00;;
51525;SDS011;37611;51.794;21.590;2022-10-16T17:01:37;29.60;;;26.40;;
51525;SDS011;37611;51.794;21.590;2022-10-16T17:05:39;25.90;;;21.30;;
51525;SDS011;37611;51.794;21.590;2022-10-16T17:09:41;20.70;;;17.40;;
51525;SDS011;37611;51.794;21.590;2022-10-16T17:13:43;21.20;;;16.80;;
51525;SDS011;37611;51.794;21.590;2022-10-16T17:17:45;19.00;;;15.20;;
51525;SDS011;37611;51.794;21.590;2022-10-16T17:21:48;17.90;;;14.80;;
51525;SDS011;37611;51.794;21.590;2022-10-16T17:25:50;20.60;;;16.30;;
51525;SDS011;37611;51.794;21.590;2022-10-16T17:29:52;25.60;;;21.90;;
51525;SDS011;37611;51.794;21.590;2022-10-16T17:33:54;38.50;;;31.90;;
51525;SDS011;37611;51.794;21.590;2022-10-16T17:37:56;31.90;;;28.50;;
51525;SDS011;37611;51.794;21.590;2022-10-16T17:41:57;27.50;;;24.40;;
51525;SDS011;37611;51.794;21.590;2022-10-16T17:46:01;22.30;;;18.00;;
51525;SDS011;37611;51.794;21.590;2022-10-16T17:50:03;34.10;;;22.90;;
51525;SDS011;37611;51.794;21.590;2022-10-16T17:54:05;25.30;;;21.90;;
51525;SDS011;37611;51.794;21.590;2022-10-16T17:58:08;27.30;;;21.10;;
51525;SDS011;37611;51.794;21.590;2022-10-16T18:02:10;28.10;;;22.50;;
51525;SDS011;37611;51.794;21.590;2022-10-16T18:06:12;28.50;;;21.90;;
51525;SDS011;37611;51.794;21.590;2022-10-16T18:10:13;25.90;;;18.80;;
51525;SDS011;37611;51.794;21.590;2022-10-16T18:14:16;20.60;;;15.10;;
51525;SDS011;37611;51.794;21.590;2022-10-16T18:18:18;17.30;;;15.50;;
51525;SDS011;37611;51.794;21.590;2022-10-16T18:22:20;18.30;;;16.30;;
51525;SDS011;37611;51.794;21.590;2022-10-16T18:26:22;19.30;;;16.60;;
51525;SDS011;37611;51.794;21.590;2022-10-16T18:30:24;16.90;;;15.10;;
51525;SDS011;37611;51.794;21.590;2022-10-16T18:34:26;15.80;;;14.20;;
51525;SDS011;37611;51.794;21.590;2022-10-16T18:38:28;17.70;;;14.40;;
51525;SDS011;37611;51.794;21.590;2022-10-16T18:42:30;20.80;;;15.80;;
51525;SDS011;37611;51.794;21.590;2022-10-16T18:46:32;19.10;;;17.20;;
51525;SDS011;37611;51.794;21.590;2022-10-16T18:50:34;19.20;;;16.20;;
51525;SDS011;37611;51.794;21.590;2022-10-16T18:54:36;15.00;;;13.50;;
51525;SDS011;37611;51.794;21.590;2022-10-16T18:58:37;17.60;;;15.50;;
51525;SDS011;37611;51.794;21.590;2022-10-16T19:02:41;18.70;;;15.40;;
51525;SDS011;37611;51.794;21.590;2022-10-16T19:06:45;15.90;;;14.20;;
51525;SDS011;37611;51.794;21.590;2022-10-16T19:10:48;18.70;;;14.60;;
51525;SDS011;37611;51.794;21.590;2022-10-16T19:14:50;18.40;;;14.20;;
51525;SDS011;37611;51.794;21.590;2022-10-16T19:18:52;16.30;;;14.50;;
51525;SDS011;37611;51.794;21.590;2022-10-16T19:22:56;18.80;;;16.70;;
51525;SDS011;37611;51.794;21.590;2022-10-16T19:26:59;20.10;;;18.00;;
51525;SDS011;37611;51.794;21.590;2022-10-16T19:31:01;24.10;;;20.70;;
51525;SDS011;37611;51.794;21.590;2022-10-16T19:35:05;27.20;;;23.20;;
51525;SDS011;37611;51.794;21.590;2022-10-16T19:39:13;32.50;;;25.20;;
51525;SDS011;37611;51.794;21.590;2022-10-16T19:43:17;28.60;;;24.50;;
51525;SDS011;37611;51.794;21.590;2022-10-16T19:47:19;30.10;;;25.00;;
51525;SDS011;37611;51.794;21.590;2022-10-16T19:51:21;29.50;;;24.30;;
51525;SDS011;37611;51.794;21.590;2022-10-16T19:55:24;32.90;;;27.40;;
51525;SDS011;37611;51.794;21.590;2022-10-16T19:59:25;78.50;;;54.20;;
51525;SDS011;37611;51.794;21.590;2022-10-16T20:03:27;44.40;;;35.20;;
51525;SDS011;37611;51.794;21.590;2022-10-16T20:07:29;60.30;;;45.30;;
51525;SDS011;37611;51.794;21.590;2022-10-16T20:11:32;58.20;;;44.40;;
51525;SDS011;37611;51.794;21.590;2022-10-16T20:15:36;54.10;;;41.00;;
51525;SDS011;37611;51.794;21.590;2022-10-16T20:19:38;46.70;;;36.60;;
51525;SDS011;37611;51.794;21.590;2022-10-16T20:23:40;43.00;;;32.30;;
51525;SDS011;37611;51.794;21.590;2022-10-16T20:27:42;48.60;;;35.60;;
51525;SDS011;37611;51.794;21.590;2022-10-16T20:31:44;38.50;;;29.40;;
51525;SDS011;37611;51.794;21.590;2022-10-16T20:35:47;35.30;;;28.60;;
51525;SDS011;37611;51.794;21.590;2022-10-16T20:39:49;36.90;;;27.30;;
51525;SDS011;37611;51.794;21.590;2022-10-16T20:43:51;35.90;;;27.50;;
51525;SDS011;37611;51.794;21.590;2022-10-16T20:47:53;34.80;;;23.50;;
51525;SDS011;37611;51.794;21.590;2022-10-16T20:51:55;30.00;;;23.40;;
51525;SDS011;37611;51.794;21.590;2022-10-16T20:55:59;29.80;;;23.80;;
51525;SDS011;37611;51.794;21.590;2022-10-16T21:00:02;30.40;;;23.00;;
51525;SDS011;37611;51.794;21.590;2022-10-16T21:04:06;38.60;;;28.30;;
51525;SDS011;37611;51.794;21.590;2022-10-16T21:08:09;30.50;;;25.50;;
51525;SDS011;37611;51.794;21.590;2022-10-16T21:12:10;30.50;;;23.00;;
51525;SDS011;37611;51.794;21.590;2022-10-16T21:16:13;20.90;;;17.00;;
51525;SDS011;37611;51.794;21.590;2022-10-16T21:20:15;19.00;;;16.10;;
51525;SDS011;37611;51.794;21.590;2022-10-16T21:24:17;21.40;;;17.80;;
51525;SDS011;37611;51.794;21.590;2022-10-16T21:28:19;33.30;;;22.80;;
51525;SDS011;37611;51.794;21.590;2022-10-16T21:32:21;24.50;;;20.50;;
51525;SDS011;37611;51.794;21.590;2022-10-16T21:36:26;24.50;;;18.40;;
51525;SDS011;37611;51.794;21.590;2022-10-16T21:40:30;22.30;;;19.20;;
51525;SDS011;37611;51.794;21.590;2022-10-16T21:44:31;23.50;;;19.90;;
51525;SDS011;37611;51.794;21.590;2022-10-16T21:48:34;23.60;;;20.10;;
51525;SDS011;37611;51.794;21.590;2022-10-16T21:52:35;26.00;;;20.40;;
51525;SDS011;37611;51.794;21.590;2022-10-16T21:56:37;27.80;;;21.40;;
51525;SDS011;37611;51.794;21.590;2022-10-16T22:00:39;25.40;;;21.90;;
51525;SDS011;37611;51.794;21.590;2022-10-16T22:04:41;24.70;;;21.10;;
51525;SDS011;37611;51.794;21.590;2022-10-16T22:08:43;22.60;;;18.40;;
51525;SDS011;37611;51.794;21.590;2022-10-16T22:12:47;21.10;;;18.90;;
51525;SDS011;37611;51.794;21.590;2022-10-16T22:16:49;24.70;;;18.30;;
51525;SDS011;37611;51.794;21.590;2022-10-16T22:20:51;20.20;;;18.20;;
51525;SDS011;37611;51.794;21.590;2022-10-16T22:24:52;20.50;;;18.10;;
51525;SDS011;37611;51.794;21.590;2022-10-16T22:28:54;20.60;;;17.80;;
51525;SDS011;37611;51.794;21.590;2022-10-16T22:32:56;22.60;;;19.40;;
51525;SDS011;37611;51.794;21.590;2022-10-16T22:36:58;22.90;;;18.00;;
51525;SDS011;37611;51.794;21.590;2022-10-16T22:41:07;20.40;;;17.40;;
51525;SDS011;37611;51.794;21.590;2022-10-16T22:45:11;27.00;;;20.40;;
51525;SDS011;37611;51.794;21.590;2022-10-16T22:49:13;72.50;;;47.40;;
51525;SDS011;37611;51.794;21.590;2022-10-16T22:53:16;45.80;;;34.50;;
51525;SDS011;37611;51.794;21.590;2022-10-16T22:57:18;42.80;;;32.80;;
51525;SDS011;37611;51.794;21.590;2022-10-16T23:01:22;43.90;;;31.60;;
51525;SDS011;37611;51.794;21.590;2022-10-16T23:05:26;40.30;;;28.80;;
51525;SDS011;37611;51.794;21.590;2022-10-16T23:09:28;32.00;;;26.90;;
51525;SDS011;37611;51.794;21.590;2022-10-16T23:13:29;30.50;;;22.80;;
51525;SDS011;37611;51.794;21.590;2022-10-16T23:17:31;25.90;;;22.10;;
51525;SDS011;37611;51.794;21.590;2022-10-16T23:21:33;23.30;;;20.60;;
51525;SDS011;37611;51.794;21.590;2022-10-16T23:25:36;27.00;;;20.60;;
51525;SDS011;37611;51.794;21.590;2022-10-16T23:29:38;22.50;;;20.00;;
51525;SDS011;37611;51.794;21.590;2022-10-16T23:33:39;23.00;;;19.40;;
51525;SDS011;37611;51.794;21.590;2022-10-16T23:37:41;23.10;;;20.60;;
51525;SDS011;37611;51.794;21.590;2022-10-16T23:41:43;27.40;;;18.40;;
51525;SDS011;37611;51.794;21.590;2022-10-16T23:45:45;24.00;;;20.90;;
51525;SDS011;37611;51.794;21.590;2022-10-16T23:49:46;20.50;;;18.30;;
51525;SDS011;37611;51.794;21.590;2022-10-16T23:53:48;21.20;;;18.60;;
51525;SDS011;37611;51.794;21.590;2022-10-16T23:57:50;19.70;;;17.70;;
